Vacaria, Brazil
Current Conditions -  °F | °C
As of 6:00 PM on Saturday 20 Dec 2014 (Local Time) from SBCM Reporting Station
Few Clouds Few Clouds  
Wind Chill: 81°   Ceiling: Unl
Heat Index: 86°   Visibility: 6mi
Dew Point: 75°   Wind: 8mph
Humidity: 84%   Direction: 60°ENE
Pressure: 29.59"   Gusts: NA
Location:  28.51°S, 50.93°W
Report Text: SBCM 202000Z 06007KT 9999 FEW015 FEW020TCU 27/24 Q1002 RETS
Loading
Personal Weather Stations






























Interactive Weather Map New forecast layout! Learn more

10-Day Weather Forecast

Advertisements
Track Severe Weather on mobile